createdAt,value
2022-07-30T00:09:38.086Z,1.30
2022-07-30T00:19:45.619Z,1.08
2022-07-30T00:29:52.328Z,1.30
2022-07-30T00:39:57.234Z,1.20
2022-07-30T00:50:04.247Z,1.05
2022-07-30T01:00:12.172Z,1.30
2022-07-30T01:10:19.373Z,1.50
2022-07-30T01:20:28.398Z,1.27
2022-07-30T01:30:35.006Z,1.08
2022-07-30T01:40:38.779Z,1.30
2022-07-30T01:50:47.219Z,1.20
2022-07-30T02:00:50.894Z,1.20
2022-07-30T02:11:44.891Z,1.50
2022-07-30T02:21:55.406Z,1.90
2022-07-30T02:32:05.973Z,1.20
2022-07-30T02:42:09.348Z,1.45
2022-07-30T02:52:15.869Z,1.50
2022-07-30T03:02:29.071Z,1.52
2022-07-30T03:12:33.066Z,1.20
2022-07-30T03:22:42.240Z,1.27
2022-07-30T03:32:47.046Z,1.20
2022-07-30T03:42:50.438Z,1.60
2022-07-30T03:52:57.119Z,1.40
2022-07-30T04:03:00.625Z,1.50
2022-07-30T04:13:05.386Z,1.67
2022-07-30T04:23:11.168Z,1.27
2022-07-30T04:33:15.261Z,1.80
2022-07-30T04:43:19.993Z,1.40
2022-07-30T04:53:22.661Z,1.30
2022-07-30T05:03:37.759Z,1.27
2022-07-30T05:13:48.592Z,1.30
2022-07-30T05:23:58.010Z,1.67
2022-07-30T05:34:15.435Z,1.60
2022-07-30T05:44:23.589Z,1.65
2022-07-30T05:54:28.685Z,2.00
2022-07-30T06:04:54.060Z,2.00
2022-07-30T06:15:00.513Z,1.67
2022-07-30T06:25:11.448Z,1.65
2022-07-30T06:35:13.608Z,3.45
2022-07-30T06:45:20.878Z,1.90
2022-07-30T06:55:42.860Z,1.92
2022-07-30T07:05:45.159Z,1.88
2022-07-30T07:15:47.661Z,1.73
2022-07-30T07:26:01.295Z,1.73
2022-07-30T07:36:07.523Z,2.65
2022-07-30T07:46:10.076Z,2.40
2022-07-30T07:56:13.511Z,2.03
2022-07-30T08:06:17.091Z,2.35
2022-07-30T08:16:35.064Z,2.05
2022-07-30T08:27:09.269Z,2.10
2022-07-30T08:37:14.494Z,2.38
2022-07-30T08:47:21.544Z,2.17
2022-07-30T08:57:52.812Z,1.98
2022-07-30T09:07:54.870Z,2.20
2022-07-30T09:18:03.071Z,3.03
2022-07-30T09:28:15.825Z,1.90
2022-07-30T09:39:00.363Z,1.88
2022-07-30T09:49:24.356Z,2.17
2022-07-30T09:59:34.784Z,2.17
2022-07-30T10:09:37.734Z,1.90
2022-07-30T10:19:42.180Z,1.80
2022-07-30T10:30:13.853Z,2.00
2022-07-30T10:40:30.841Z,1.90
2022-07-30T10:50:53.374Z,2.40
2022-07-30T11:00:55.373Z,2.10
2022-07-30T11:11:19.411Z,2.13
2022-07-30T11:21:25.473Z,2.35
2022-07-30T11:31:54.884Z,2.17
2022-07-30T11:42:29.886Z,3.28
2022-07-30T11:52:32.960Z,3.38
2022-07-30T12:02:37.431Z,3.65
2022-07-30T12:12:39.412Z,3.50
2022-07-30T12:22:41.433Z,3.45
2022-07-30T12:32:48.409Z,3.78
2022-07-30T12:42:55.967Z,4.15
2022-07-30T12:52:57.998Z,4.53
2022-07-30T13:03:00.258Z,3.47
2022-07-30T13:13:04.806Z,3.17
2022-07-30T13:23:08.992Z,3.50
2022-07-30T13:33:18.332Z,3.40
2022-07-30T13:43:21.536Z,3.22
2022-07-30T13:53:25.822Z,3.58
2022-07-30T14:03:28.543Z,2.72
2022-07-30T14:13:32.935Z,4.93
2022-07-30T14:23:37.650Z,4.57
2022-07-30T14:33:42.187Z,4.28
2022-07-30T14:43:47.080Z,3.47
2022-07-30T14:53:52.093Z,3.50
2022-07-30T15:03:56.621Z,3.55
2022-07-30T15:14:01.283Z,3.90
2022-07-30T15:24:07.460Z,4.65
2022-07-30T15:34:13.576Z,5.05
2022-07-30T15:44:15.732Z,4.15
2022-07-30T15:54:24.546Z,3.20
2022-07-30T16:04:31.733Z,3.10
2022-07-30T16:14:37.553Z,2.58
2022-07-30T16:24:44.393Z,2.35
2022-07-30T16:34:50.032Z,2.65
2022-07-30T16:44:52.237Z,2.28
2022-07-30T16:54:56.416Z,2.25
2022-07-30T17:05:00.644Z,2.30
2022-07-30T17:15:08.030Z,2.85
2022-07-30T17:25:10.308Z,2.13
2022-07-30T17:35:14.069Z,2.45
2022-07-30T17:45:16.269Z,3.08
2022-07-30T17:55:20.797Z,2.88
2022-07-30T18:05:25.197Z,3.20
2022-07-30T18:15:35.985Z,3.42
2022-07-30T18:25:53.139Z,3.30
2022-07-30T18:36:00.008Z,3.60
2022-07-30T18:46:05.919Z,4.07
2022-07-30T18:56:11.894Z,2.97
2022-07-30T19:06:16.501Z,3.42
2022-07-30T19:16:23.945Z,2.80
2022-07-30T19:26:28.757Z,3.20
2022-07-30T19:36:30.828Z,3.20
2022-07-30T19:46:33.411Z,3.92
2022-07-30T19:56:38.052Z,3.53
2022-07-30T20:06:46.160Z,3.50
2022-07-30T20:16:53.934Z,3.70
2022-07-30T20:26:56.502Z,3.50
2022-07-30T20:36:58.572Z,3.28
2022-07-30T20:47:34.663Z,3.20
2022-07-30T20:57:57.100Z,3.30
2022-07-30T21:08:06.473Z,3.63
2022-07-30T21:18:10.237Z,3.97
2022-07-30T21:28:18.523Z,4.55
2022-07-30T21:38:30.612Z,4.90
2022-07-30T21:48:35.933Z,5.13
2022-07-30T21:58:40.303Z,4.97
2022-07-30T22:08:43.892Z,5.50
2022-07-30T22:18:56.239Z,5.57
2022-07-30T22:29:01.252Z,5.82
2022-07-30T22:39:03.745Z,6.25
2022-07-30T22:49:25.129Z,6.03
2022-07-30T23:00:00.256Z,6.53
2022-07-30T23:09:57.263Z,5.38
2022-07-30T23:20:02.051Z,6.25
2022-07-30T23:30:04.388Z,7.05
2022-07-30T23:40:07.822Z,6.65
2022-07-30T23:50:13.022Z,6.35
